createdAt,value
2022-09-14T00:01:27.717Z,1.85
2022-09-14T00:04:17.703Z,2.10
2022-09-14T00:07:07.064Z,2.22
2022-09-14T00:09:54.510Z,2.00
2022-09-14T00:12:41.529Z,1.70
2022-09-14T00:15:30.935Z,2.05
2022-09-14T00:18:18.011Z,2.28
2022-09-14T00:21:09.388Z,1.90
2022-09-14T00:23:56.553Z,2.78
2022-09-14T00:26:45.998Z,1.85
2022-09-14T00:29:33.450Z,2.00
2022-09-14T00:32:23.578Z,2.70
2022-09-14T00:35:11.082Z,2.20
2022-09-14T00:37:58.174Z,2.22
2022-09-14T00:40:45.525Z,2.17
2022-09-14T00:43:33.717Z,2.30
2022-09-14T00:46:23.780Z,2.47
2022-09-14T00:49:25.489Z,2.08
2022-09-14T00:52:21.883Z,2.38
2022-09-14T00:55:20.259Z,1.98
2022-09-14T00:58:07.804Z,2.10
2022-09-14T01:01:01.752Z,2.03
2022-09-14T01:03:51.434Z,2.33
2022-09-14T01:07:01.768Z,2.38
2022-09-14T01:09:55.368Z,2.63
2022-09-14T01:12:48.259Z,3.10
2022-09-14T01:16:04.710Z,3.83
2022-09-14T01:18:58.573Z,4.30
2022-09-14T01:21:46.877Z,3.78
2022-09-14T01:24:48.413Z,4.40
2022-09-14T01:27:41.807Z,4.47
2022-09-14T01:30:32.774Z,4.82
2022-09-14T01:33:25.461Z,5.00
2022-09-14T01:36:15.043Z,4.97
2022-09-14T01:39:02.893Z,5.13
2022-09-14T01:41:52.494Z,5.15
2022-09-14T01:44:45.426Z,4.32
2022-09-14T01:48:03.805Z,4.28
2022-09-14T01:50:54.615Z,4.55
2022-09-14T01:53:49.097Z,4.65
2022-09-14T01:56:41.870Z,4.03
2022-09-14T02:02:33.141Z,4.05
2022-09-14T02:05:32.290Z,4.32
2022-09-14T02:08:19.852Z,4.85
2022-09-14T02:11:07.345Z,4.43
2022-09-14T02:13:57.256Z,4.40
2022-09-14T02:16:46.374Z,3.42
2022-09-14T02:19:41.898Z,3.95
2022-09-14T02:22:32.718Z,3.80
2022-09-14T02:25:21.037Z,4.55
2022-09-14T02:28:08.395Z,4.38
2022-09-14T02:31:17.216Z,4.38
2022-09-14T02:34:13.645Z,4.80
2022-09-14T02:37:16.387Z,5.90
2022-09-14T02:40:03.429Z,5.32
2022-09-14T02:43:34.876Z,5.03
2022-09-14T02:46:44.919Z,5.55
2022-09-14T02:49:50.571Z,7.13
2022-09-14T02:53:06.374Z,6.10
2022-09-14T02:56:09.408Z,6.78
2022-09-14T02:58:56.808Z,6.20
2022-09-14T03:01:44.430Z,6.07
2022-09-14T03:04:31.570Z,7.28
2022-09-14T03:07:18.631Z,6.95
2022-09-14T03:10:05.964Z,7.60
2022-09-14T03:12:53.252Z,7.93
2022-09-14T03:15:40.672Z,7.72
2022-09-14T03:18:27.774Z,7.40
2022-09-14T03:21:18.193Z,8.30
2022-09-14T03:24:05.412Z,8.07
2022-09-14T03:26:52.459Z,11.82
2022-09-14T03:29:39.544Z,8.63
2022-09-14T03:32:26.591Z,8.13
2022-09-14T03:35:14.290Z,8.38
2022-09-14T03:38:03.075Z,8.98
2022-09-14T03:40:53.167Z,8.50
2022-09-14T03:43:41.249Z,9.70
2022-09-14T03:46:30.581Z,10.20
2022-09-14T03:49:17.660Z,11.55
2022-09-14T03:52:05.082Z,11.73
2022-09-14T03:54:52.289Z,11.60
2022-09-14T03:57:41.622Z,11.43
2022-09-14T04:00:32.865Z,10.48
2022-09-14T04:03:22.101Z,11.20
2022-09-14T04:06:10.039Z,11.30
2022-09-14T04:08:57.110Z,11.90
2022-09-14T04:11:44.184Z,11.77
2022-09-14T04:14:31.238Z,9.85
2022-09-14T04:17:20.479Z,11.60
2022-09-14T04:20:08.715Z,11.82
2022-09-14T04:22:55.928Z,13.40
2022-09-14T04:25:43.380Z,12.30
2022-09-14T04:28:32.863Z,12.80
2022-09-14T04:31:20.015Z,12.18
2022-09-14T04:34:07.191Z,11.85
2022-09-14T04:36:54.568Z,12.63
2022-09-14T04:39:44.117Z,12.35
2022-09-14T04:42:33.495Z,11.15
2022-09-14T04:45:21.206Z,10.98
2022-09-14T04:48:08.657Z,10.18
2022-09-14T04:51:07.599Z,10.25
2022-09-14T04:53:56.486Z,10.52
2022-09-14T04:56:46.181Z,10.18
2022-09-14T04:59:33.380Z,10.98
2022-09-14T05:02:20.653Z,10.38
2022-09-14T05:05:08.486Z,9.57
2022-09-14T05:07:55.494Z,10.43
2022-09-14T05:10:42.809Z,10.25
2022-09-14T05:13:29.824Z,9.13
2022-09-14T05:16:25.518Z,9.77
2022-09-14T05:19:16.319Z,9.93
2022-09-14T05:22:03.472Z,10.25
2022-09-14T05:24:50.552Z,9.77
2022-09-14T05:27:37.653Z,10.10
2022-09-14T05:30:26.890Z,9.90
2022-09-14T05:33:14.020Z,10.10
2022-09-14T05:36:03.233Z,9.55
2022-09-14T05:38:50.603Z,9.52
2022-09-14T05:41:40.093Z,9.00
2022-09-14T05:44:27.256Z,9.25
2022-09-14T05:47:14.331Z,8.75
2022-09-14T05:50:01.634Z,7.95
2022-09-14T05:52:49.452Z,7.90
2022-09-14T05:55:36.615Z,7.60
2022-09-14T05:58:26.458Z,8.48
2022-09-14T06:01:17.226Z,7.45
2022-09-14T06:04:04.655Z,8.55
2022-09-14T06:07:17.076Z,7.90
2022-09-14T06:10:02.423Z,7.32
2022-09-14T06:17:37.341Z,7.15
2022-09-14T06:20:02.209Z,7.43
2022-09-14T06:22:51.382Z,6.70
2022-09-14T06:25:39.999Z,6.47
2022-09-14T06:28:28.309Z,5.88
2022-09-14T06:31:26.960Z,5.90
2022-09-14T06:34:13.991Z,5.50
2022-09-14T06:37:07.689Z,5.95
2022-09-14T06:39:54.813Z,5.78
2022-09-14T06:42:44.439Z,5.15
2022-09-14T06:45:34.738Z,5.50
2022-09-14T06:48:22.074Z,4.95
2022-09-14T06:51:41.056Z,4.60
2022-09-14T06:54:28.329Z,5.60
2022-09-14T06:57:29.010Z,5.32
2022-09-14T07:00:36.775Z,5.78
2022-09-14T07:03:24.303Z,5.45
2022-09-14T07:06:14.191Z,5.10
2022-09-14T07:09:06.613Z,5.63
2022-09-14T07:11:55.881Z,4.90
2022-09-14T07:14:42.868Z,4.90
2022-09-14T07:17:29.949Z,4.28
2022-09-14T07:20:19.904Z,4.78
2022-09-14T07:23:09.403Z,4.28
2022-09-14T07:26:08.162Z,4.00
2022-09-14T07:29:01.195Z,3.97
2022-09-14T07:31:52.856Z,3.97
2022-09-14T07:34:40.022Z,3.40
2022-09-14T07:37:27.192Z,3.72
2022-09-14T07:40:14.443Z,3.58
2022-09-14T07:43:02.819Z,3.75
2022-09-14T07:45:53.052Z,3.28
2022-09-14T07:48:40.269Z,3.90
2022-09-14T07:51:29.032Z,3.80
2022-09-14T07:54:17.965Z,3.20
2022-09-14T07:57:05.356Z,2.80
2022-09-14T07:59:53.558Z,2.50
2022-09-14T08:02:41.187Z,2.40
2022-09-14T08:05:28.404Z,3.03
2022-09-14T08:08:16.331Z,2.60
2022-09-14T08:11:17.841Z,3.17
2022-09-14T08:14:09.982Z,3.78
2022-09-14T08:16:57.471Z,2.92
2022-09-14T08:19:47.165Z,2.33
2022-09-14T08:22:34.351Z,2.63
2022-09-14T08:25:21.524Z,2.72
2022-09-14T08:28:11.137Z,2.50
2022-09-14T08:31:13.289Z,2.88
2022-09-14T08:34:03.637Z,2.50
2022-09-14T08:36:51.029Z,3.50
2022-09-14T08:39:38.142Z,2.83
2022-09-14T08:42:26.053Z,2.95
2022-09-14T08:45:16.618Z,2.55
2022-09-14T08:48:07.403Z,2.70
2022-09-14T08:50:54.542Z,2.70
2022-09-14T08:53:44.168Z,2.40
2022-09-14T08:56:37.073Z,2.40
2022-09-14T08:59:57.518Z,2.70
2022-09-14T09:03:10.984Z,2.08
2022-09-14T09:06:03.327Z,2.33
2022-09-14T09:09:06.987Z,2.30
2022-09-14T09:11:55.972Z,1.98
2022-09-14T09:14:55.429Z,1.90
2022-09-14T09:17:48.536Z,1.88
2022-09-14T09:20:50.439Z,1.85
2022-09-14T09:23:37.687Z,1.65
2022-09-14T09:26:34.266Z,1.80
2022-09-14T09:29:21.770Z,1.55
2022-09-14T09:32:15.501Z,2.10
2022-09-14T09:35:08.125Z,1.75
2022-09-14T09:37:57.751Z,1.70
2022-09-14T09:40:49.422Z,2.03
2022-09-14T09:43:59.095Z,2.53
2022-09-14T09:46:53.040Z,2.15
2022-09-14T09:49:40.258Z,2.03
2022-09-14T09:52:28.854Z,1.98
2022-09-14T09:55:21.486Z,2.25
2022-09-14T09:58:30.893Z,1.58
2022-09-14T10:01:32.962Z,2.00
2022-09-14T10:04:28.769Z,2.05
2022-09-14T10:07:23.378Z,1.88
2022-09-14T10:10:14.379Z,2.22
2022-09-14T10:13:03.574Z,2.10
2022-09-14T10:15:50.796Z,1.70
2022-09-14T10:18:49.363Z,2.03
2022-09-14T10:21:38.746Z,2.40
2022-09-14T10:24:25.954Z,2.55
2022-09-14T10:27:37.571Z,2.75
2022-09-14T10:30:40.331Z,2.00
2022-09-14T10:33:28.119Z,2.13
2022-09-14T10:36:29.297Z,2.13
2022-09-14T10:39:23.000Z,2.33
2022-09-14T10:42:29.219Z,2.30
2022-09-14T10:45:31.433Z,3.90
2022-09-14T10:48:54.362Z,1.90
2022-09-14T10:55:00.511Z,1.38
2022-09-14T10:58:02.031Z,1.73
2022-09-14T11:00:56.681Z,1.40
2022-09-14T11:04:08.620Z,1.58
2022-09-14T11:07:18.943Z,1.33
2022-09-14T11:10:29.000Z,1.10
2022-09-14T11:13:26.929Z,1.67
2022-09-14T11:16:29.742Z,1.17
2022-09-14T11:19:36.773Z,1.50
2022-09-14T11:22:38.979Z,1.23
2022-09-14T11:26:00.920Z,1.50
2022-09-14T11:28:52.790Z,1.50
2022-09-14T11:32:19.941Z,1.38
2022-09-14T11:35:09.833Z,1.55
2022-09-14T11:38:01.509Z,1.73
2022-09-14T11:41:09.611Z,1.63
2022-09-14T11:44:11.221Z,1.67
2022-09-14T11:47:18.238Z,1.73
2022-09-14T11:50:27.162Z,1.55
2022-09-14T11:53:25.845Z,1.60
2022-09-14T11:56:26.685Z,2.00
2022-09-14T11:59:35.819Z,1.83
2022-09-14T12:02:25.467Z,2.08
2022-09-14T12:05:12.988Z,2.00
2022-09-14T12:08:02.825Z,1.88
2022-09-14T12:11:29.613Z,1.80
2022-09-14T12:14:40.300Z,1.65
2022-09-14T12:17:39.858Z,1.90
2022-09-14T12:20:52.936Z,2.00
2022-09-14T12:23:43.563Z,2.53
2022-09-14T12:26:35.358Z,2.75
2022-09-14T12:29:31.675Z,2.85
2022-09-14T12:32:43.210Z,2.38
2022-09-14T12:35:40.994Z,3.00
2022-09-14T12:38:31.134Z,3.50
2022-09-14T12:41:18.319Z,3.65
2022-09-14T12:44:29.338Z,3.35
2022-09-14T12:47:25.745Z,3.60
2022-09-14T12:50:20.820Z,3.80
2022-09-14T12:53:30.805Z,3.25
2022-09-14T12:56:53.604Z,3.22
2022-09-14T13:00:18.002Z,3.40
2022-09-14T13:03:43.502Z,3.53
2022-09-14T13:06:44.242Z,4.68
2022-09-14T13:09:34.737Z,4.88
2022-09-14T13:12:34.993Z,4.65
2022-09-14T13:15:50.497Z,4.05
2022-09-14T13:18:38.303Z,3.30
2022-09-14T13:21:25.610Z,3.03
2022-09-14T13:24:39.326Z,3.10
2022-09-14T13:27:38.496Z,3.05
2022-09-14T13:30:30.465Z,3.28
2022-09-14T13:33:20.350Z,3.20
2022-09-14T13:36:07.606Z,2.88
2022-09-14T13:39:01.704Z,3.22
2022-09-14T13:41:52.105Z,2.97
2022-09-14T13:44:51.787Z,3.03
2022-09-14T13:47:44.064Z,3.78
2022-09-14T13:50:34.264Z,3.00
2022-09-14T13:53:40.873Z,2.20
2022-09-14T13:56:33.960Z,1.92
2022-09-14T13:59:25.543Z,2.42
2022-09-14T14:02:14.048Z,1.83
2022-09-14T14:05:01.483Z,1.70
2022-09-14T14:07:48.660Z,1.70
2022-09-14T14:10:41.172Z,1.88
2022-09-14T14:13:31.788Z,1.60
2022-09-14T14:16:49.585Z,1.67
2022-09-14T14:19:43.766Z,1.27
2022-09-14T14:22:36.106Z,1.30
2022-09-14T14:25:45.689Z,1.20
2022-09-14T14:28:33.833Z,1.00
2022-09-14T14:31:27.597Z,1.02
2022-09-14T14:34:26.484Z,1.00
2022-09-14T14:37:13.684Z,1.40
2022-09-14T14:40:01.070Z,1.20
2022-09-14T14:42:50.433Z,1.40
2022-09-14T14:45:38.909Z,2.35
2022-09-14T14:48:27.650Z,1.27
2022-09-14T14:51:15.300Z,1.42
2022-09-14T14:54:02.368Z,1.38
2022-09-14T14:56:51.442Z,2.00
2022-09-14T14:59:39.891Z,1.35
2022-09-14T15:02:27.059Z,1.00
2022-09-14T15:05:14.775Z,1.33
2022-09-14T15:08:04.195Z,1.58
2022-09-14T15:10:56.903Z,1.45
2022-09-14T15:16:32.518Z,1.73
2022-09-14T15:19:19.825Z,1.55
2022-09-14T15:22:10.244Z,1.48
2022-09-14T15:25:01.870Z,1.50
2022-09-14T15:27:49.553Z,1.40
2022-09-14T15:30:36.744Z,1.38
2022-09-14T15:33:24.189Z,1.13
2022-09-14T15:36:14.102Z,1.10
2022-09-14T15:39:01.253Z,1.40
2022-09-14T15:41:49.273Z,1.55
2022-09-14T15:44:36.463Z,0.80
2022-09-14T15:47:23.886Z,1.00
2022-09-14T15:50:13.334Z,1.05
2022-09-14T15:53:02.768Z,0.80
2022-09-14T15:55:50.620Z,1.10
2022-09-14T15:58:37.991Z,0.73
2022-09-14T16:01:25.849Z,0.88
2022-09-14T16:04:13.144Z,0.63
2022-09-14T16:07:00.441Z,0.80
2022-09-14T16:09:48.025Z,0.70
2022-09-14T16:12:35.526Z,0.95
2022-09-14T16:15:25.155Z,0.70
2022-09-14T16:18:12.429Z,0.80
2022-09-14T16:21:10.685Z,0.73
2022-09-14T16:24:00.124Z,0.75
2022-09-14T16:26:47.798Z,0.77
2022-09-14T16:29:40.830Z,1.08
2022-09-14T16:32:31.331Z,1.40
2022-09-14T16:35:21.277Z,1.10
2022-09-14T16:38:08.462Z,1.08
2022-09-14T16:41:00.115Z,1.10
2022-09-14T16:43:47.446Z,0.93
2022-09-14T16:46:34.883Z,1.13
2022-09-14T16:49:27.005Z,1.00
2022-09-14T16:52:15.014Z,1.02
2022-09-14T16:55:02.552Z,1.10
2022-09-14T16:57:49.752Z,1.52
2022-09-14T17:00:39.385Z,0.90
2022-09-14T17:03:31.828Z,0.80
2022-09-14T17:06:21.724Z,1.15
2022-09-14T17:09:21.457Z,1.33
2022-09-14T17:12:08.674Z,1.30
2022-09-14T17:14:56.030Z,2.42
2022-09-14T17:17:43.183Z,1.50
2022-09-14T17:20:30.552Z,1.33
2022-09-14T17:23:17.786Z,1.88
2022-09-14T17:26:07.326Z,1.40
2022-09-14T17:28:59.260Z,1.77
2022-09-14T17:31:46.876Z,1.50
2022-09-14T17:34:34.178Z,2.33
2022-09-14T17:37:21.544Z,2.40
2022-09-14T17:40:11.019Z,1.88
2022-09-14T17:42:58.439Z,2.20
2022-09-14T17:45:59.395Z,1.90
2022-09-14T17:48:46.689Z,1.75
2022-09-14T17:51:36.610Z,1.73
2022-09-14T17:54:23.980Z,1.73
2022-09-14T17:57:13.642Z,2.17
2022-09-14T18:00:00.843Z,1.90
2022-09-14T18:02:51.928Z,1.98
2022-09-14T18:05:41.217Z,2.45
2022-09-14T18:08:30.231Z,2.17
2022-09-14T18:11:18.122Z,2.38
2022-09-14T18:14:06.508Z,2.53
2022-09-14T18:16:53.905Z,2.50
2022-09-14T18:19:41.117Z,2.75
2022-09-14T18:22:28.990Z,2.63
2022-09-14T18:25:16.173Z,2.05
2022-09-14T18:28:05.182Z,2.10
2022-09-14T18:31:01.272Z,1.77
2022-09-14T18:33:51.487Z,2.47
2022-09-14T18:36:39.097Z,2.25
2022-09-14T18:39:26.370Z,1.98
2022-09-14T18:42:16.204Z,2.20
2022-09-14T18:45:03.701Z,2.28
2022-09-14T18:47:51.129Z,2.78
2022-09-14T18:50:42.277Z,3.45
2022-09-14T18:53:29.455Z,3.67
2022-09-14T18:56:17.798Z,2.80
2022-09-14T18:59:08.754Z,2.90
2022-09-14T19:01:55.969Z,4.40
2022-09-14T19:04:43.236Z,3.15
2022-09-14T19:07:30.787Z,2.10
2022-09-14T19:10:20.777Z,2.45
2022-09-14T19:13:08.088Z,2.67
2022-09-14T19:15:55.653Z,2.33
2022-09-14T19:18:43.997Z,2.40
2022-09-14T19:21:32.282Z,2.58
2022-09-14T19:24:19.673Z,2.28
2022-09-14T19:27:07.829Z,2.08
2022-09-14T19:29:59.926Z,1.98
2022-09-14T19:32:49.774Z,3.60
2022-09-14T19:35:37.516Z,3.60
2022-09-14T19:38:27.294Z,2.15
2022-09-14T19:41:16.290Z,2.38
2022-09-14T19:44:15.057Z,2.03
2022-09-14T19:47:02.727Z,2.50
2022-09-14T19:49:50.044Z,2.30
2022-09-14T19:52:40.167Z,2.15
2022-09-14T19:55:27.725Z,2.55
2022-09-14T19:58:15.111Z,2.20
2022-09-14T20:01:04.174Z,2.40
2022-09-14T20:03:52.263Z,2.25
2022-09-14T20:06:45.993Z,2.35
2022-09-14T20:09:33.470Z,1.90
2022-09-14T20:12:20.741Z,2.05
2022-09-14T20:15:08.640Z,3.30
2022-09-14T20:17:56.428Z,2.42
2022-09-14T20:20:43.866Z,2.25
2022-09-14T20:23:34.408Z,2.10
2022-09-14T20:26:21.559Z,2.40
2022-09-14T20:29:09.045Z,2.85
2022-09-14T20:31:57.162Z,2.70
2022-09-14T20:34:47.168Z,2.15
2022-09-14T20:37:38.065Z,2.10
2022-09-14T20:40:25.494Z,2.47
2022-09-14T20:43:12.627Z,2.15
2022-09-14T20:46:04.732Z,2.42
2022-09-14T20:48:53.579Z,2.40
2022-09-14T20:51:42.938Z,2.33
2022-09-14T20:54:30.185Z,2.20
2022-09-14T20:57:17.359Z,2.20
2022-09-14T21:00:04.785Z,2.35
2022-09-14T21:02:52.422Z,2.35
2022-09-14T21:05:40.713Z,2.05
2022-09-14T21:08:29.738Z,2.67
2022-09-14T21:11:29.510Z,2.25
2022-09-14T21:14:19.010Z,2.45
2022-09-14T21:17:08.546Z,2.25
2022-09-14T21:19:56.200Z,2.85
2022-09-14T21:22:45.666Z,2.63
2022-09-14T21:25:33.066Z,2.45
2022-09-14T21:28:20.178Z,2.30
2022-09-14T21:31:11.485Z,2.25
2022-09-14T21:34:01.912Z,2.60
2022-09-14T21:36:52.583Z,2.03
2022-09-14T21:39:40.400Z,2.90
2022-09-14T21:42:29.562Z,2.50
2022-09-14T21:45:19.409Z,2.67
2022-09-14T21:48:06.614Z,2.10
2022-09-14T21:51:06.136Z,2.40
2022-09-14T21:54:00.028Z,2.60
2022-09-14T21:56:47.772Z,2.72
2022-09-14T21:59:37.674Z,2.10
2022-09-14T22:02:24.788Z,2.60
2022-09-14T22:05:14.707Z,2.05
2022-09-14T22:08:02.233Z,2.78
2022-09-14T22:10:49.848Z,2.50
2022-09-14T22:13:37.471Z,2.47
2022-09-14T22:16:26.393Z,2.60
2022-09-14T22:19:16.650Z,2.35
2022-09-14T22:22:03.822Z,3.30
2022-09-14T22:24:50.925Z,2.60
2022-09-14T22:27:39.423Z,2.92
2022-09-14T22:30:26.623Z,2.65
2022-09-14T22:33:14.000Z,2.33
2022-09-14T22:36:07.771Z,2.78
2022-09-14T22:38:56.975Z,2.70
2022-09-14T22:41:44.116Z,2.97
2022-09-14T22:44:31.614Z,2.17
2022-09-14T22:47:18.868Z,2.47
2022-09-14T22:50:08.570Z,3.53
2022-09-14T22:52:55.817Z,2.30
2022-09-14T22:55:45.370Z,2.35
2022-09-14T22:58:35.133Z,2.30
2022-09-14T23:01:28.161Z,2.25
2022-09-14T23:04:15.721Z,2.50
2022-09-14T23:07:04.309Z,2.63
2022-09-14T23:09:51.522Z,2.47
2022-09-14T23:12:38.631Z,2.50
2022-09-14T23:15:26.314Z,2.72
2022-09-14T23:18:13.879Z,2.50
2022-09-14T23:21:03.808Z,2.67
2022-09-14T23:24:03.616Z,2.25
2022-09-14T23:26:50.711Z,2.65
2022-09-14T23:29:37.917Z,2.42
2022-09-14T23:32:27.802Z,2.55
2022-09-14T23:35:15.478Z,3.15
2022-09-14T23:38:02.959Z,2.88
2022-09-14T23:40:50.430Z,2.95
2022-09-14T23:43:37.592Z,2.95
2022-09-14T23:46:25.663Z,2.65
2022-09-14T23:49:13.612Z,2.42
2022-09-14T23:52:00.953Z,2.65
2022-09-14T23:54:48.428Z,2.47
2022-09-14T23:57:38.265Z,3.00
